Time;durP1;ratioP1;P1;durP2;ratioP2;P2;SDS_P1;SDS_P2;PMS_P1;PMS_P2;Temp;Humidity;BMP_temperature;BMP_pressure;BME280_temperature;BME280_humidity;BME280_pressure;Samples;Min_cycle;Max_cycle;Signal;HPM_P1;HPM_P2
2023/05/10 04:37:22;;;;;;;5.85;5.20;;;12.80;99.90;;;;;;5021964;28;20067;-84
2023/05/10 04:39:48;;;;;;;6.85;6.25;;;12.80;99.90;;;;;;5019954;28;20054;-85
2023/05/10 04:42:14;;;;;;;6.40;5.80;;;12.80;99.90;;;;;;5036139;28;20040;-88
2023/05/10 04:44:41;;;;;;;6.60;6.00;;;12.90;99.90;;;;;;4995056;28;20030;-87
2023/05/10 04:47:13;;;;;;;6.38;5.88;;;12.70;99.90;;;;;;5023485;28;20076;-88
2023/05/10 04:49:43;;;;;;;6.75;6.15;;;12.80;99.90;;;;;;5022091;28;20049;-86
2023/05/10 04:52:17;;;;;;;6.07;5.28;;;12.80;99.90;;;;;;5023767;28;20049;-85
2023/05/10 04:54:51;;;;;;;6.07;5.30;;;12.80;99.90;;;;;;5018212;28;20041;-89
2023/05/10 04:57:17;;;;;;;7.22;6.20;;;12.80;99.90;;;;;;5020998;28;20132;-86
2023/05/10 04:59:42;;;;;;;6.53;5.05;;;12.80;99.90;;;;;;5026223;28;20579;-88
2023/05/10 05:02:08;;;;;;;5.10;4.50;;;12.80;99.90;;;;;;5029838;28;20049;-88
2023/05/10 05:04:34;;;;;;;7.75;5.13;;;12.80;99.90;;;;;;5028830;28;20064;-86
2023/05/10 05:06:59;;;;;;;6.78;5.22;;;12.80;99.90;;;;;;5031297;28;20052;-87
2023/05/10 05:09:25;;;;;;;6.57;5.97;;;12.90;99.90;;;;;;5022034;28;20107;-86
2023/05/10 05:11:50;;;;;;;7.50;6.72;;;13.40;99.90;;;;;;5017709;28;20131;-86
2023/05/10 05:14:16;;;;;;;6.70;5.78;;;12.90;99.90;;;;;;5025329;28;20052;-86
2023/05/10 05:16:44;;;;;;;6.78;6.07;;;13.10;99.90;;;;;;5026047;28;20079;-86
2023/05/10 05:19:10;;;;;;;5.97;5.28;;;12.80;99.90;;;;;;5016312;28;20073;-86
2023/05/10 05:21:36;;;;;;;9.85;6.22;;;12.90;99.90;;;;;;5027930;28;20049;-86
2023/05/10 05:24:01;;;;;;;7.07;6.40;;;12.90;99.90;;;;;;5026664;28;20061;-87
2023/05/10 05:26:50;;;;;;;6.20;5.60;;;13.30;99.90;;;;;;5023759;28;20071;-86
2023/05/10 05:29:15;;;;;;;6.75;6.05;;;13.00;99.90;;;;;;5016538;28;20132;-86
2023/05/10 05:32:28;;;;;;;8.73;5.93;;;12.80;99.90;;;;;;5032979;28;20136;-86
2023/05/10 05:35:35;;;;;;;5.20;4.70;;;12.90;99.90;;;;;;5044949;28;20052;-87
2023/05/10 05:38:18;;;;;;;5.07;4.47;;;12.90;99.90;;;;;;5022117;28;20049;-87
2023/05/10 05:41:07;;;;;;;4.70;4.30;;;12.90;99.90;;;;;;5028642;28;20050;-87
2023/05/10 05:43:36;;;;;;;6.70;4.72;;;13.00;99.90;;;;;;5028719;28;20358;-88
2023/05/10 05:46:01;;;;;;;4.90;4.45;;;12.90;99.90;;;;;;5024087;28;20033;-88
2023/05/10 05:48:29;;;;;;;6.45;5.50;;;12.90;99.90;;;;;;5030848;28;20144;-87
2023/05/10 05:50:56;;;;;;;6.30;5.78;;;12.90;99.90;;;;;;5034878;28;20041;-87
2023/05/10 05:53:26;;;;;;;8.60;7.70;;;13.00;99.90;;;;;;5048705;28;20038;-89
2023/05/10 05:59:44;;;;;;;7.60;6.82;;;13.00;99.90;;;;;;4977868;28;20138;-88
2023/05/10 06:02:37;;;;;;;8.27;6.57;;;13.00;99.90;;;;;;5011352;28;20054;-87
2023/05/10 06:05:20;;;;;;;6.38;5.78;;;13.10;99.90;;;;;;4979686;28;20039;-86
2023/05/10 06:08:25;;;;;;;6.28;5.63;;;13.00;99.90;;;;;;4958420;28;20069;-87
2023/05/10 06:11:09;;;;;;;4.85;4.43;;;13.10;99.90;;;;;;5019987;28;20061;-86
2023/05/10 06:13:38;;;;;;;4.95;4.45;;;13.10;99.90;;;;;;5068074;28;20116;-87
2023/05/10 06:16:13;;;;;;;5.43;4.93;;;13.10;99.90;;;;;;5013847;28;20488;-86
2023/05/10 06:26:55;;;;;;;4.18;3.55;;;13.40;99.90;;;;;;4967638;28;20034;-87
2023/05/10 06:29:21;;;;;;;4.15;3.85;;;13.40;99.90;;;;;;4953838;28;20039;-88
2023/05/10 06:31:49;;;;;;;3.50;3.20;;;13.40;99.90;;;;;;5018285;28;20061;-88
2023/05/10 06:38:08;;;;;;;3.60;3.30;;;13.50;99.90;;;;;;5026643;28;20136;-88
2023/05/10 06:44:52;;;;;;;4.93;3.03;;;13.60;99.90;;;;;;5028948;28;20045;-87
2023/05/10 09:28:33;;;;;;;2.53;2.33;;;15.20;99.90;;;;;;4966181;28;20047;-85
2023/05/10 10:56:09;;;;;;;3.85;1.90;;;16.20;99.90;;;;;;4927795;29;20079;-83
2023/05/10 10:58:36;;;;;;;2.05;1.85;;;16.40;99.90;;;;;;4923611;29;20074;-84
2023/05/10 11:01:16;;;;;;;5.80;2.63;;;16.50;99.90;;;;;;4928180;29;20032;-83
2023/05/10 11:12:00;;;;;;;;;;;;;;;;;;;;;
2023/05/10 11:52:18;;;;;;;4.30;3.92;;;16.70;99.90;;;;;;4859456;29;20050;-85
2023/05/10 11:54:52;;;;;;;5.30;4.85;;;16.80;99.90;;;;;;4910664;29;20069;-84
2023/05/10 11:57:28;;;;;;;5.60;4.40;;;16.70;99.90;;;;;;4939179;29;20086;-85
2023/05/10 12:02:46;;;;;;;4.43;4.00;;;16.60;99.90;;;;;;4930820;29;20054;-86
2023/05/10 12:05:15;;;;;;;4.85;4.35;;;16.70;99.90;;;;;;4915860;29;20043;-84
2023/05/10 12:08:26;;;;;;;;;;;;;;;;;;;;;
2023/05/10 12:11:18;;;;;;;;;;;;;;;;;;;;;
2023/05/10 12:13:54;;;;;;;4.57;3.10;;;16.10;99.90;;;;;;4925392;29;20039;-83
2023/05/10 12:16:29;;;;;;;3.03;2.55;;;16.00;99.90;;;;;;4927320;29;20101;-85
2023/05/10 12:18:59;;;;;;;4.13;2.50;;;16.00;99.90;;;;;;4941950;28;20046;-84
2023/05/10 12:21:30;;;;;;;2.90;2.42;;;16.40;99.90;;;;;;4928989;29;20048;-86
2023/05/10 12:24:03;;;;;;;3.53;3.20;;;16.00;99.90;;;;;;4927809;29;21035;-86
2023/05/10 12:26:48;;;;;;;3.10;2.80;;;15.90;99.90;;;;;;4940409;28;20048;-87
2023/05/10 14:31:10;;;;;;;7.65;6.85;;;15.70;99.90;;;;;;4007257;23;20092;-86
2023/05/10 14:33:35;;;;;;;6.90;6.30;;;15.80;99.90;;;;;;4913891;29;20519;-83
2023/05/10 14:36:03;;;;;;;7.60;6.78;;;15.80;99.90;;;;;;4911095;29;20048;-84
2023/05/10 14:38:28;;;;;;;7.82;6.50;;;15.80;99.90;;;;;;4904142;29;22373;-85
2023/05/10 14:40:56;;;;;;;7.53;6.82;;;15.80;99.90;;;;;;4911400;29;20050;-85
2023/05/10 14:43:22;;;;;;;6.93;6.20;;;15.90;99.90;;;;;;4915281;29;20188;-84
2023/05/10 14:45:48;;;;;;;7.32;6.60;;;16.00;99.90;;;;;;4914767;29;20131;-84
2023/05/10 14:48:17;;;;;;;7.63;6.93;;;16.00;99.90;;;;;;4911580;29;20059;-85
2023/05/10 14:50:43;;;;;;;9.15;7.57;;;16.10;99.90;;;;;;4905861;29;20094;-86
2023/05/10 14:53:09;;;;;;;7.63;6.55;;;16.10;99.90;;;;;;4911206;29;20040;-85
2023/05/10 14:55:38;;;;;;;7.30;6.60;;;16.20;99.90;;;;;;4918410;29;20502;-85
2023/05/10 14:58:06;;;;;;;7.35;6.65;;;16.10;99.90;;;;;;4898320;29;20368;-83
2023/05/10 15:00:31;;;;;;;6.55;5.93;;;16.20;99.90;;;;;;4910138;29;20092;-86
2023/05/10 15:02:59;;;;;;;6.90;6.20;;;16.20;99.90;;;;;;4925719;29;20043;-85
2023/05/10 15:05:25;;;;;;;7.43;6.72;;;16.30;99.90;;;;;;4920434;29;20040;-84
2023/05/10 15:07:50;;;;;;;12.60;6.75;;;16.30;99.90;;;;;;4913546;29;20538;-84
2023/05/10 15:10:16;;;;;;;7.68;6.68;;;16.30;99.90;;;;;;4917354;29;20036;-85
2023/05/10 15:12:42;;;;;;;7.20;6.35;;;16.30;99.90;;;;;;4931218;29;20044;-84
2023/05/10 15:15:07;;;;;;;11.25;6.15;;;16.40;99.90;;;;;;4914764;29;20051;-83
2023/05/10 15:17:36;;;;;;;10.05;6.65;;;16.50;99.90;;;;;;4909079;29;20079;-83
2023/05/10 15:20:03;;;;;;;7.25;6.55;;;16.50;99.90;;;;;;4932656;29;20052;-84
2023/05/10 15:22:31;;;;;;;8.23;6.53;;;16.50;99.90;;;;;;4916034;29;20127;-86
2023/05/10 15:25:01;;;;;;;7.53;6.22;;;16.60;99.90;;;;;;4915984;29;20040;-83
2023/05/10 15:27:26;;;;;;;9.68;6.25;;;16.50;99.90;;;;;;4919789;29;20107;-83
2023/05/10 15:29:52;;;;;;;6.85;6.07;;;16.50;99.90;;;;;;4934237;29;20479;-83
2023/05/10 15:32:18;;;;;;;7.63;6.90;;;16.50;99.90;;;;;;4916231;29;20048;-80
2023/05/10 15:34:44;;;;;;;8.98;6.70;;;16.50;99.90;;;;;;4912342;29;20138;-83
2023/05/10 15:37:09;;;;;;;5.50;5.05;;;16.50;99.90;;;;;;4914776;29;20044;-85
2023/05/10 15:39:35;;;;;;;6.28;5.45;;;16.50;99.90;;;;;;4916718;29;20044;-84
2023/05/10 15:42:01;;;;;;;4.80;4.40;;;16.50;99.90;;;;;;4916520;29;20071;-82
2023/05/10 15:44:26;;;;;;;7.43;4.20;;;16.40;99.90;;;;;;4914955;29;20081;-84
2023/05/10 15:46:52;;;;;;;5.63;4.00;;;16.40;99.90;;;;;;4918385;29;20039;-83
2023/05/10 15:49:17;;;;;;;4.50;4.07;;;16.40;99.90;;;;;;4916261;29;20044;-81
2023/05/10 15:51:43;;;;;;;4.93;3.90;;;16.40;99.90;;;;;;4911641;29;20048;-82
2023/05/10 15:54:09;;;;;;;5.22;3.85;;;16.40;99.90;;;;;;4915138;29;20407;-83
2023/05/10 15:56:35;;;;;;;9.15;3.70;;;16.30;99.90;;;;;;4902615;29;20047;-82
2023/05/10 15:59:00;;;;;;;3.25;2.85;;;16.30;99.90;;;;;;4913924;29;20515;-83
2023/05/10 16:01:27;;;;;;;3.45;3.15;;;16.30;99.90;;;;;;4914319;29;20048;-85
2023/05/10 16:03:52;;;;;;;6.03;3.38;;;16.30;99.90;;;;;;4911519;29;20074;-83
2023/05/10 16:06:18;;;;;;;3.45;3.08;;;16.30;99.90;;;;;;4910212;29;20968;-85
2023/05/10 16:08:44;;;;;;;3.92;3.20;;;16.30;99.90;;;;;;4913518;29;20052;-86
2023/05/10 16:11:10;;;;;;;3.38;2.90;;;16.20;99.90;;;;;;4913230;29;20048;-84
2023/05/10 16:13:36;;;;;;;5.80;2.80;;;16.30;99.90;;;;;;4931649;29;20055;-84
2023/05/10 16:16:02;;;;;;;3.45;3.08;;;16.60;99.90;;;;;;4915163;29;20044;-85
2023/05/10 16:18:28;;;;;;;3.35;3.05;;;16.50;99.90;;;;;;4915589;29;20092;-84
2023/05/10 16:20:53;;;;;;;3.83;3.33;;;16.10;99.90;;;;;;4918119;29;20067;-84
2023/05/10 16:23:19;;;;;;;4.60;3.17;;;16.10;99.90;;;;;;4918081;29;20040;-85
2023/05/10 16:25:45;;;;;;;4.35;3.30;;;16.10;99.90;;;;;;4913192;29;20067;-84
2023/05/10 16:28:10;;;;;;;3.75;3.45;;;16.10;99.90;;;;;;4912459;29;20502;-85
2023/05/10 16:30:36;;;;;;;3.70;3.38;;;16.10;99.90;;;;;;4914213;29;20044;-85
2023/05/10 16:33:02;;;;;;;3.88;3.55;;;16.10;99.90;;;;;;4915966;29;20150;-84
2023/05/10 16:35:28;;;;;;;4.03;3.50;;;16.00;99.90;;;;;;4918690;29;20047;-85
2023/05/10 16:37:54;;;;;;;5.75;3.47;;;16.00;99.90;;;;;;4914621;29;20067;-84
2023/05/10 16:40:20;;;;;;;3.47;3.17;;;16.00;99.90;;;;;;4914148;29;20092;-82
2023/05/10 16:42:46;;;;;;;5.15;4.60;;;16.00;99.90;;;;;;4928533;29;20483;-83
2023/05/10 16:45:12;;;;;;;6.18;5.53;;;16.00;99.90;;;;;;4913426;29;20039;-84
2023/05/10 16:47:39;;;;;;;7.65;5.93;;;15.90;99.90;;;;;;4915561;29;20447;-84
2023/05/10 16:50:06;;;;;;;7.78;6.95;;;15.80;99.90;;;;;;4911194;29;20059;-83
2023/05/10 16:52:33;;;;;;;7.00;5.75;;;15.70;99.90;;;;;;4914037;29;20047;-84
2023/05/10 16:54:59;;;;;;;6.88;6.28;;;15.60;99.90;;;;;;4897759;29;20050;-83
2023/05/10 16:57:26;;;;;;;7.28;6.38;;;15.60;99.90;;;;;;4911332;29;20052;-84
2023/05/10 16:59:55;;;;;;;7.55;6.70;;;15.50;99.90;;;;;;4928501;29;20048;-84
2023/05/10 17:02:21;;;;;;;7.88;6.38;;;15.40;99.90;;;;;;4910442;29;20044;-84
2023/05/10 17:04:48;;;;;;;6.90;6.20;;;15.40;99.90;;;;;;4930869;29;20140;-84
2023/05/10 17:07:14;;;;;;;6.45;5.85;;;15.30;99.90;;;;;;4915058;29;20510;-84
2023/05/10 17:09:42;;;;;;;5.85;5.35;;;15.30;99.90;;;;;;4918159;29;20044;-84
2023/05/10 17:12:07;;;;;;;6.20;5.60;;;15.20;99.90;;;;;;4917454;29;20150;-83
2023/05/10 17:14:33;;;;;;;6.75;5.32;;;15.20;99.90;;;;;;4917301;29;20495;-84
2023/05/10 17:16:59;;;;;;;7.00;5.50;;;15.20;99.90;;;;;;4917288;29;20538;-83
2023/05/10 17:19:24;;;;;;;5.75;5.13;;;15.20;99.90;;;;;;4914173;29;20450;-83
2023/05/10 17:21:50;;;;;;;4.93;4.22;;;15.20;99.90;;;;;;4912449;29;20507;-82
2023/05/10 17:24:16;;;;;;;4.65;4.25;;;15.20;99.90;;;;;;4914356;29;20554;-83
2023/05/10 17:26:41;;;;;;;4.78;4.38;;;15.20;99.90;;;;;;4918411;29;20044;-82
2023/05/10 17:29:07;;;;;;;5.25;4.10;;;15.20;99.90;;;;;;4916405;29;20058;-82
2023/05/10 17:31:32;;;;;;;5.57;4.93;;;15.20;99.90;;;;;;4914881;29;20048;-84
2023/05/10 17:33:58;;;;;;;4.82;4.43;;;15.20;99.90;;;;;;4918893;29;20047;-82
2023/05/10 17:36:24;;;;;;;5.50;4.40;;;15.20;99.90;;;;;;4914109;29;20164;-84
2023/05/10 17:38:50;;;;;;;5.47;4.88;;;15.20;99.90;;;;;;4920158;29;20070;-84
2023/05/10 17:41:16;;;;;;;6.32;4.53;;;15.20;99.90;;;;;;4919578;29;20055;-84
2023/05/10 17:43:41;;;;;;;6.03;4.43;;;15.20;99.90;;;;;;4931201;29;20044;-82
2023/05/10 17:46:07;;;;;;;5.50;4.25;;;15.20;99.90;;;;;;4913079;29;20044;-83
2023/05/10 17:48:35;;;;;;;6.90;4.72;;;15.20;99.90;;;;;;4911919;29;20576;-83
2023/05/10 17:51:01;;;;;;;5.50;4.95;;;15.20;99.90;;;;;;4912893;29;20047;-83
2023/05/10 17:53:26;;;;;;;6.07;5.13;;;15.30;99.90;;;;;;4913143;29;20055;-84
2023/05/10 17:55:52;;;;;;;8.20;5.70;;;15.30;99.90;;;;;;4920592;29;20098;-83
2023/05/10 17:58:18;;;;;;;5.38;4.88;;;15.30;99.90;;;;;;4916427;29;20428;-83
2023/05/10 18:00:43;;;;;;;5.72;4.15;;;15.30;99.90;;;;;;4916385;29;20410;-83
2023/05/10 18:03:10;;;;;;;4.15;3.70;;;15.20;99.90;;;;;;4919767;29;20040;-83
2023/05/10 18:05:37;;;;;;;5.50;3.80;;;15.20;99.90;;;;;;4930863;29;20495;-83
2023/05/10 18:08:04;;;;;;;4.57;3.78;;;15.20;99.90;;;;;;4913670;29;20044;-83
2023/05/10 18:10:30;;;;;;;5.70;3.28;;;15.20;99.90;;;;;;4918463;29;20051;-83
2023/05/10 18:12:57;;;;;;;3.45;3.15;;;15.20;99.90;;;;;;4890941;29;20048;-83
2023/05/10 18:15:23;;;;;;;3.70;3.33;;;15.20;99.90;;;;;;4915405;29;20529;-83
2023/05/10 18:17:49;;;;;;;4.43;3.97;;;15.20;99.90;;;;;;4916628;29;20051;-83
2023/05/10 18:20:15;;;;;;;4.45;3.45;;;15.20;99.90;;;;;;4913992;29;20413;-83
2023/05/10 18:22:40;;;;;;;4.20;3.80;;;15.20;99.90;;;;;;4912090;29;20044;-83
2023/05/10 18:25:06;;;;;;;3.85;3.55;;;15.20;99.90;;;;;;4915629;29;20071;-83
2023/05/10 18:27:33;;;;;;;3.85;3.60;;;15.20;99.90;;;;;;4917423;29;20124;-82
2023/05/10 18:29:58;;;;;;;4.90;3.33;;;15.20;99.90;;;;;;4927192;29;20095;-83
2023/05/10 18:32:24;;;;;;;4.28;3.88;;;15.10;99.90;;;;;;4914922;29;20166;-83
2023/05/10 18:34:49;;;;;;;8.57;3.80;;;15.00;99.90;;;;;;4913158;29;20154;-83
2023/05/10 18:37:15;;;;;;;4.28;3.42;;;15.10;99.90;;;;;;4915079;29;20047;-84
2023/05/10 18:39:41;;;;;;;3.90;3.60;;;15.70;99.90;;;;;;4930279;29;20048;-85
2023/05/10 18:42:07;;;;;;;5.13;3.78;;;15.00;99.90;;;;;;4930186;29;20523;-83
2023/05/10 18:44:33;;;;;;;3.97;3.63;;;15.00;99.90;;;;;;4914376;29;20044;-85
2023/05/10 18:46:59;;;;;;;6.78;3.28;;;15.00;99.90;;;;;;4916348;29;20086;-85
2023/05/10 18:49:28;;;;;;;4.90;3.30;;;14.90;99.90;;;;;;4915598;29;20048;-85
2023/05/10 18:51:53;;;;;;;3.85;3.55;;;14.90;99.90;;;;;;4899819;29;20052;-84
2023/05/10 18:54:19;;;;;;;3.28;2.97;;;14.90;99.90;;;;;;4915729;29;20092;-84
2023/05/10 18:56:45;;;;;;;3.90;2.80;;;14.90;99.90;;;;;;4914731;29;20044;-84
2023/05/10 18:59:11;;;;;;;6.13;3.33;;;14.80;99.90;;;;;;4917578;29;20130;-84
2023/05/10 19:01:39;;;;;;;9.70;2.78;;;14.80;99.90;;;;;;4916401;29;20135;-83
2023/05/10 19:04:04;;;;;;;3.63;3.33;;;14.80;99.90;;;;;;4916989;29;20050;-85
2023/05/10 19:06:30;;;;;;;3.15;2.85;;;14.80;99.90;;;;;;4915904;29;20043;-84
2023/05/10 19:09:20;;;;;;;;;;;;;;;;;;;;;
2023/05/10 19:11:46;;;;;;;3.28;2.97;;;14.70;99.90;;;;;;4929266;29;20096;-86
2023/05/10 19:14:12;;;;;;;4.78;2.95;;;14.60;99.90;;;;;;4903551;29;20077;-85
2023/05/10 19:16:40;;;;;;;3.03;2.72;;;14.50;99.90;;;;;;4915695;29;20040;-85
2023/05/10 19:19:06;;;;;;;3.17;2.42;;;15.20;99.90;;;;;;4914364;29;20155;-84
2023/05/10 19:21:32;;;;;;;3.42;3.13;;;14.40;99.90;;;;;;4917247;29;20050;-85
2023/05/10 19:24:00;;;;;;;4.63;3.17;;;14.40;99.90;;;;;;4914965;29;20056;-84
2023/05/10 19:26:26;;;;;;;5.70;3.53;;;14.30;99.90;;;;;;4916255;29;20036;-85
2023/05/10 19:28:52;;;;;;;3.53;3.22;;;14.30;99.90;;;;;;4926946;29;20067;-85
2023/05/10 19:31:19;;;;;;;12.20;4.00;;;14.30;99.90;;;;;;4912351;29;20067;-86
2023/05/10 19:33:44;;;;;;;3.53;3.22;;;14.20;99.90;;;;;;4901386;29;20056;-85
2023/05/10 19:36:10;;;;;;;3.65;3.30;;;14.20;99.90;;;;;;4918580;29;20759;-86
2023/05/10 19:38:36;;;;;;;5.00;3.05;;;14.70;99.90;;;;;;4915824;29;20415;-86
2023/05/10 19:41:04;;;;;;;5.57;3.78;;;14.10;99.90;;;;;;4918029;29;20191;-85
2023/05/10 19:43:32;;;;;;;4.45;3.65;;;14.00;99.90;;;;;;4900407;29;20059;-85
2023/05/10 19:46:01;;;;;;;5.07;3.67;;;14.00;99.90;;;;;;4914100;29;20444;-85
2023/05/10 19:48:30;;;;;;;4.47;4.07;;;14.00;99.90;;;;;;4913924;29;20055;-84
2023/05/10 19:51:01;;;;;;;4.68;4.28;;;14.00;99.90;;;;;;4915013;29;20055;-84
2023/05/10 19:53:27;;;;;;;5.30;4.80;;;13.90;99.90;;;;;;4918534;29;20440;-84
2023/05/10 19:56:01;;;;;;;5.70;5.07;;;13.90;99.90;;;;;;4915114;29;20143;-85
2023/05/10 19:58:29;;;;;;;5.78;5.25;;;13.90;99.90;;;;;;4911226;29;20649;-85
2023/05/10 20:00:54;;;;;;;6.75;5.57;;;14.00;99.90;;;;;;4930395;29;20044;-86
2023/05/10 20:03:20;;;;;;;7.05;6.43;;;13.70;99.90;;;;;;4916968;29;20044;-85
2023/05/10 20:05:45;;;;;;;6.88;5.65;;;13.70;99.90;;;;;;4918976;29;20066;-85
2023/05/10 20:08:11;;;;;;;6.43;5.82;;;13.70;99.90;;;;;;4918016;29;20075;-85
2023/05/10 20:10:37;;;;;;;7.10;6.50;;;13.70;99.90;;;;;;4916571;29;20052;-85
2023/05/10 20:13:08;;;;;;;7.47;6.32;;;13.60;99.90;;;;;;4912171;29;20115;-85
2023/05/10 20:15:37;;;;;;;6.25;5.65;;;13.60;99.90;;;;;;4912355;29;20091;-86
2023/05/10 20:18:03;;;;;;;6.55;5.95;;;13.60;99.90;;;;;;4894725;29;20048;-85
2023/05/10 20:20:35;;;;;;;6.20;5.70;;;13.60;99.90;;;;;;4910636;29;20051;-85
2023/05/10 20:23:01;;;;;;;6.40;5.90;;;14.10;99.90;;;;;;4928607;29;20036;-84
2023/05/10 20:25:28;;;;;;;6.68;6.18;;;13.60;99.90;;;;;;4910866;29;20099;-86
2023/05/10 20:28:19;;;;;;;8.25;6.63;;;13.40;99.90;;;;;;4910537;29;20130;-86
2023/05/10 20:30:45;;;;;;;6.70;5.85;;;13.40;99.90;;;;;;4911193;29;20035;-86
2023/05/10 20:33:10;;;;;;;7.40;6.68;;;13.40;99.90;;;;;;4913856;29;20525;-86
2023/05/10 20:35:43;;;;;;;7.28;6.68;;;13.40;99.90;;;;;;4901195;29;20051;-86
2023/05/10 20:38:10;;;;;;;7.15;6.57;;;13.30;99.90;;;;;;4917462;29;20486;-87
2023/05/10 20:40:36;;;;;;;9.10;7.03;;;13.30;99.90;;;;;;4918965;29;20058;-86
2023/05/10 20:43:05;;;;;;;6.70;6.20;;;13.30;99.90;;;;;;4913344;29;20487;-86
2023/05/10 20:45:40;;;;;;;7.20;6.57;;;13.20;99.90;;;;;;4914540;29;20048;-86
2023/05/10 20:48:06;;;;;;;7.05;6.35;;;13.20;99.90;;;;;;4907203;29;20095;-86
2023/05/10 20:50:34;;;;;;;7.43;6.82;;;13.10;99.90;;;;;;4916996;29;20073;-85
2023/05/10 20:53:00;;;;;;;6.10;5.47;;;13.10;99.90;;;;;;4930608;29;20048;-85
2023/05/10 20:55:26;;;;;;;7.38;6.68;;;13.00;99.90;;;;;;4911237;29;20042;-85
2023/05/10 20:57:54;;;;;;;7.72;7.13;;;12.90;99.90;;;;;;4914892;29;20039;-85
2023/05/10 21:00:23;;;;;;;6.82;6.32;;;13.00;99.90;;;;;;4914587;29;20036;-85
2023/05/10 21:02:49;;;;;;;7.10;6.50;;;12.90;99.90;;;;;;4913974;29;20043;-85
2023/05/10 21:05:16;;;;;;;6.45;5.95;;;13.00;99.90;;;;;;4898958;29;20504;-86
2023/05/10 21:07:46;;;;;;;7.50;6.43;;;12.90;99.90;;;;;;4913488;29;20056;-85
2023/05/10 21:10:12;;;;;;;7.53;6.90;;;13.20;99.90;;;;;;4917887;29;20530;-86
2023/05/10 21:12:38;;;;;;;7.85;6.90;;;12.80;99.90;;;;;;4914427;29;20250;-86
2023/05/10 21:15:04;;;;;;;7.32;6.65;;;12.80;99.90;;;;;;4898892;29;21857;-86
2023/05/10 21:17:33;;;;;;;6.97;6.45;;;12.80;99.90;;;;;;4897378;29;20155;-86
2023/05/10 21:19:58;;;;;;;7.20;6.53;;;12.80;99.90;;;;;;4910900;29;20913;-84
2023/05/10 21:22:25;;;;;;;8.07;7.28;;;12.80;99.90;;;;;;4913052;29;20075;-85
2023/05/10 21:24:53;;;;;;;6.93;6.32;;;12.80;99.90;;;;;;4898196;29;20039;-85
2023/05/10 21:27:19;;;;;;;7.50;6.80;;;12.80;99.90;;;;;;4917685;29;20051;-85
2023/05/10 21:29:44;;;;;;;7.80;7.07;;;12.80;99.90;;;;;;4914837;29;20115;-85
2023/05/10 21:32:13;;;;;;;8.00;7.40;;;12.80;99.90;;;;;;4918870;29;20080;-85
2023/05/10 21:34:39;;;;;;;8.27;7.53;;;12.80;99.90;;;;;;4915864;29;20040;-85
2023/05/10 21:37:04;;;;;;;8.77;7.88;;;12.80;99.90;;;;;;4918097;29;20414;-85
2023/05/10 21:39:30;;;;;;;8.75;7.85;;;12.90;99.90;;;;;;4913733;29;20047;-85
2023/05/10 21:41:56;;;;;;;7.90;7.07;;;12.80;99.90;;;;;;4913575;29;20478;-84
2023/05/10 21:44:21;;;;;;;7.95;7.22;;;13.50;99.90;;;;;;4915242;29;20076;-85
2023/05/10 21:46:47;;;;;;;8.65;7.85;;;12.90;99.90;;;;;;4915909;29;20696;-86
2023/05/10 21:49:15;;;;;;;10.77;8.23;;;12.90;99.90;;;;;;4912612;29;20399;-85
2023/05/10 21:51:40;;;;;;;7.85;7.22;;;12.90;99.90;;;;;;4900153;29;20083;-85
2023/05/10 21:54:06;;;;;;;10.32;8.05;;;12.90;99.90;;;;;;4913344;29;20043;-84
2023/05/10 21:56:31;;;;;;;7.30;6.70;;;12.90;99.90;;;;;;4912176;29;20122;-86
2023/05/10 21:58:57;;;;;;;8.75;7.95;;;12.90;99.90;;;;;;4917503;29;20051;-85
2023/05/10 22:01:22;;;;;;;8.27;7.68;;;13.10;99.90;;;;;;4912124;29;20500;-85
2023/05/10 22:03:48;;;;;;;8.48;7.65;;;12.90;99.90;;;;;;4918181;29;20040;-86
2023/05/10 22:06:16;;;;;;;8.18;7.47;;;12.90;99.90;;;;;;4917319;29;20044;-86
2023/05/10 22:08:44;;;;;;;7.47;6.78;;;12.90;99.90;;;;;;4911725;29;20087;-85
2023/05/10 22:11:12;;;;;;;8.18;7.45;;;13.00;99.90;;;;;;4918066;29;20464;-85
2023/05/10 22:13:47;;;;;;;8.05;7.25;;;13.00;99.90;;;;;;4922505;29;20530;-85
2023/05/10 22:16:21;;;;;;;9.00;8.10;;;13.00;99.90;;;;;;4917504;29;20069;-86
2023/05/10 22:18:47;;;;;;;8.43;7.68;;;13.00;99.90;;;;;;4902614;29;20039;-84
2023/05/10 22:21:15;;;;;;;10.45;9.00;;;12.90;99.90;;;;;;4914798;29;20039;-85
2023/05/10 22:23:55;;;;;;;10.55;9.57;;;13.20;99.90;;;;;;4934611;29;20051;-85
2023/05/10 22:26:21;;;;;;;11.70;9.38;;;12.90;99.90;;;;;;4902170;29;20091;-86
2023/05/10 22:28:47;;;;;;;11.05;9.48;;;13.00;99.90;;;;;;4918931;29;20044;-86
2023/05/10 22:31:18;;;;;;;13.05;11.68;;;12.80;99.90;;;;;;4917085;29;20122;-85
2023/05/10 22:33:43;;;;;;;11.73;10.52;;;12.70;99.90;;;;;;4920444;29;20048;-85
2023/05/10 22:36:09;;;;;;;12.70;10.57;;;12.60;99.90;;;;;;4919915;29;20047;-85
2023/05/10 22:38:42;;;;;;;12.20;10.98;;;13.30;99.90;;;;;;4918629;29;20601;-86
2023/05/10 22:41:23;;;;;;;11.50;10.45;;;12.70;99.90;;;;;;4917395;29;20095;-85
2023/05/10 22:43:52;;;;;;;11.93;10.75;;;12.60;99.90;;;;;;4920446;29;20078;-85
2023/05/10 22:46:20;;;;;;;12.68;11.40;;;12.70;99.90;;;;;;4919781;29;20044;-85
2023/05/10 22:48:49;;;;;;;12.73;11.43;;;12.70;99.90;;;;;;4917622;29;20072;-84
2023/05/10 22:51:15;;;;;;;13.32;12.13;;;12.70;99.90;;;;;;4917740;29;20048;-85
2023/05/10 22:53:40;;;;;;;11.75;10.65;;;12.60;99.90;;;;;;4916416;29;20047;-85
2023/05/10 22:56:06;;;;;;;13.18;11.13;;;12.70;99.90;;;;;;4902678;29;20517;-85
2023/05/10 22:58:32;;;;;;;12.32;10.95;;;12.60;99.90;;;;;;4931132;29;20146;-86
2023/05/10 23:00:58;;;;;;;12.38;11.18;;;12.60;99.90;;;;;;4903667;29;20607;-84
2023/05/10 23:03:33;;;;;;;12.20;11.00;;;12.60;99.90;;;;;;4927937;29;20478;-85
2023/05/10 23:05:58;;;;;;;12.50;11.30;;;12.60;99.90;;;;;;4921180;29;20032;-85
2023/05/10 23:08:29;;;;;;;11.55;10.40;;;12.60;99.90;;;;;;4920557;29;20041;-86
2023/05/10 23:10:58;;;;;;;11.38;10.32;;;12.60;99.90;;;;;;4917074;29;20083;-85
2023/05/10 23:13:26;;;;;;;10.93;9.88;;;12.60;99.90;;;;;;4917848;29;20074;-85
2023/05/10 23:16:03;;;;;;;11.55;10.45;;;12.60;99.90;;;;;;4920069;29;20052;-85
2023/05/10 23:18:32;;;;;;;14.15;12.50;;;12.70;99.90;;;;;;4915350;29;20055;-86
2023/05/10 23:21:08;;;;;;;12.85;11.65;;;12.60;99.90;;;;;;4897300;29;20103;-85
2023/05/10 23:23:33;;;;;;;12.75;11.52;;;12.60;99.90;;;;;;4933282;29;20048;-84
2023/05/10 23:26:03;;;;;;;13.73;12.32;;;12.60;99.90;;;;;;4916616;29;20040;-85
2023/05/10 23:28:28;;;;;;;13.00;11.70;;;12.50;99.90;;;;;;4919274;29;20098;-85
2023/05/10 23:31:09;;;;;;;13.10;11.65;;;12.50;99.90;;;;;;4930709;29;20047;-86
2023/05/10 23:33:35;;;;;;;11.70;10.50;;;12.50;99.90;;;;;;4920045;29;20524;-85
2023/05/10 23:36:03;;;;;;;12.35;10.82;;;12.50;99.90;;;;;;4916299;29;20036;-85
2023/05/10 23:38:28;;;;;;;14.45;12.63;;;12.50;99.90;;;;;;4918751;29;20044;-85
2023/05/10 23:40:54;;;;;;;13.75;11.90;;;12.50;99.90;;;;;;4920621;29;20398;-84
2023/05/10 23:43:20;;;;;;;14.40;13.00;;;12.50;99.90;;;;;;4915526;29;20531;-85
2023/05/10 23:45:56;;;;;;;14.18;12.70;;;12.60;99.90;;;;;;4901825;29;20491;-85
2023/05/10 23:48:21;;;;;;;;;;;12.50;99.90;;;;;;4920278;29;20541;-85
2023/05/10 23:50:47;;;;;;;14.80;12.40;;;12.50;99.90;;;;;;4916928;29;19923;-85
2023/05/10 23:53:13;;;;;;;13.82;12.45;;;12.40;99.90;;;;;;4902898;29;20043;-85
2023/05/10 23:55:39;;;;;;;15.13;12.27;;;12.50;99.90;;;;;;4918617;29;20047;-85
2023/05/10 23:58:07;;;;;;;14.20;12.82;;;12.70;99.90;;;;;;4918485;29;20135;-86
